• Join FlightAware (Why Join?)
  • Login
  • US Flag 
01:55PM EDT


 

Airport Tracker/Info


-or-


 

Live Flight TrackerFlight Track Log ✈ UAL33 ✈ 02-Sep-2013 ✈ RJAA / NRT - KLAX

Flight Track Log - Related Links

Times and Time Zones

All times are in EDT time to prevent confusion due to time zone crossing. See the UAL33 flight status page for this flight to view local times or setup timezone preferences in your user account.

Time Position Orientation Groundspeed Altitude Reporting Facility
EDT Latitude Longitude Course Direction KTS MPH feet Rate Location/Type
06:54AM 35.7450 140.3900 147° Southeast 168 193 900  Level FlightAware
06:54AM 35.7330 140.3990 149° Southeast 169 194 1,800 2,160 Climbing FlightAware
06:55AM 35.7150 140.4120 150° Southeast 179 206 2,500 1,800 Climbing FlightAware
06:55AM 35.7070 140.4170 153° Southeast 180 207 2,900 1,860 Climbing FlightAware
06:55AM 35.6900 140.4290 150° Southeast 191 220 3,600 1,500 Climbing FlightAware
06:56AM 35.6730 140.4410 150° Southeast 213 245 4,000 960 Climbing FlightAware
06:56AM 35.6530 140.4570 147° Southeast 249 287 4,300 1,440 Climbing FlightAware
06:56AM 35.6340 140.4700 151° Southeast 257 296 5,000 2,040 Climbing FlightAware
06:57AM 35.6170 140.4820 150° Southeast 270 311 5,500 2,280 Climbing FlightAware
06:57AM 35.5990 140.4950 150° Southeast 276 318 6,200 2,760 Climbing FlightAware
06:57AM 35.5720 140.5140 150° Southeast 278 320 7,400 2,700 Climbing FlightAware
06:58AM 35.5490 140.5310 149° Southeast 282 325 8,300 2,220 Climbing FlightAware
06:58AM 35.5260 140.5470 150° Southeast 283 326 8,900 1,140 Climbing FlightAware
06:58AM 35.5090 140.5610 146° Southeast 288 331 9,000 180 Climbing FlightAware
06:58AM 35.4990 140.5770 128° Southeast 297 342 9,000  Level FlightAware
06:59AM 35.4940 140.5900 115° Southeast 302 348 9,000  Level FlightAware
06:59AM 35.4920 140.6030 101° East 305 351 9,000  Level FlightAware
06:59AM 35.4920 140.6510 90° East 309 356 9,000  Level FlightAware
07:00AM 35.4920 140.7010 90° East 308 354 9,000  Level FlightAware
07:00AM 35.4920 140.7400 90° East 307 353 9,000  Level FlightAware
07:01AM 35.4920 140.7840 90° East 305 351 9,000 480 Level FlightAware
07:01AM 35.4920 140.8220 90° East 308 354 9,400 1,800 Climbing FlightAware
07:01AM 35.4920 140.8790 90° East 323 372 10,600 1,680 Climbing FlightAware
07:02AM 35.4920 140.9510 90° East 360 414 11,400 1,800 Climbing FlightAware
07:03AM 35.4920 141.0220 90° East 368 423 12,800 2,400 Climbing FlightAware
07:03AM 35.4920 141.1010 90° East 378 435 14,300 2,340 Climbing FlightAware
07:04AM 35.5050 141.1660 76° East 386 444 15,500 1,740 Climbing FlightAware
07:04AM 35.5230 141.2430 74° East 412 474 16,200 1,080 Climbing FlightAware
07:05AM 35.5380 141.3340 79° East 439 505 16,900 1,320 Climbing FlightAware
07:05AM 35.5500 141.4080 79° East 448 516 17,800 1,920 Climbing FlightAware
07:06AM 35.5650 141.5010 79° East 455 524 19,000 1,860 Climbing FlightAware
07:07AM 35.5790 141.5880 79° East 461 531 20,000 1,680 Climbing FlightAware
07:07AM 35.5960 141.6950 79° East 471 542 21,100 1,620 Climbing FlightAware
07:08AM 35.6090 141.7750 79° East 477 549 21,900 1,380 Climbing FlightAware
07:08AM 35.6250 141.8690 78° East 491 565 22,600 1,260 Climbing FlightAware
07:09AM 35.6400 141.9660 79° East 497 572 23,400 1,260 Climbing FlightAware
07:10AM 35.6560 142.0690 79° East 504 580 24,200 1,200 Climbing FlightAware
07:10AM 35.6700 142.1580 79° East 508 585 24,900 1,320 Climbing FlightAware
07:11AM 35.6900 142.2850 79° East 514 592 25,900 1,260 Climbing FlightAware
07:11AM 35.7050 142.3790 79° East 521 600 26,500 1,140 Climbing FlightAware
07:12AM 35.7240 142.5010 79° East 526 605 27,300 1,020 Climbing FlightAware
07:13AM 35.7370 142.5880 80° East 530 610 27,800 360 Climbing FlightAware
07:13AM 35.7530 142.6860 79° East 530 610 27,800  Level FlightAware
07:14AM 35.7670 142.7790 79° East 530 610 27,800  Level FlightAware
07:15AM 35.7820 142.8700 78° East 530 610 27,800  Level FlightAware
07:15AM 35.7960 142.9640 80° East 530 610 27,800 3,060 Level FlightAware
07:16AM 35.8260 143.1760 80° East 526 605 32,100 3,660 Climbing FlightAware
07:17AM 35.8390 143.2660 80° East 524 603 32,800 1,200 Climbing FlightAware
07:17AM 35.8590 143.4010 80° East 523 602 33,700 900 Climbing FlightAware
07:18AM 35.8790 143.5400 80° East 521 600 34,200 900 Climbing FlightAware
07:19AM 35.9040 143.7130 80° East 527 606 35,300 1,020 Climbing FlightAware
07:19AM 35.9170 143.8020 80° East 529 609 35,700 780 Climbing FlightAware
07:20AM 35.9350 143.9320 80° East 528 608 36,300 420 Climbing FlightAware
07:21AM 35.9480 144.0330 81° East 528 608 36,300  Level FlightAware
07:21AM 35.9600 144.1250 81° East 528 608 36,300  Level FlightAware
07:22AM 35.9720 144.2160 81° East 528 608 36,300  Level FlightAware
07:23AM 35.9830 144.3070 81° East 528 608 36,300  Level FlightAware
07:23AM 35.9950 144.3980 81° East 528 608 36,300  Level FlightAware
07:24AM 36.0070 144.4900 81° East 528 608 36,300 1,500 Level FlightAware
07:24AM 36.0360 144.6620 78° East 519 597 38,000 1,500 Climbing FlightAware
07:25AM 36.0500 144.7570 80° East 519 597 38,000  Level FlightAware
07:26AM 36.0630 144.8460 80° East 519 597 38,000  Level FlightAware
07:26AM 36.0750 144.9330 80° East 519 597 38,000  Level FlightAware
07:27AM 36.0880 145.0230 80° East 519 597 38,000  Level FlightAware
07:27AM 36.1010 145.1150 80° East 519 597 38,000  Level FlightAware
07:28AM 36.1140 145.2040 80° East 519 597 38,000  Level FlightAware
07:29AM 36.1260 145.2940 81° East 519 597 38,000  Level FlightAware
07:29AM 36.1390 145.3840 80° East 519 597 38,000  Level FlightAware
07:30AM 36.1520 145.4730 80° East 519 597 38,000  Level FlightAware
07:30AM 36.1650 145.5630 80° East 519 597 38,000  Level FlightAware
07:31AM 36.1770 145.6530 81° East 519 597 38,000  Level FlightAware
07:32AM 36.1900 145.7420 80° East 519 597 38,000  Level FlightAware
07:32AM 36.2030 145.8320 80° East 519 597 38,000  Level FlightAware
07:33AM 36.2160 145.9220 80° East 519 597 38,000  Level FlightAware
07:33AM 36.2280 146.0110 80° East 519 597 38,000  Level FlightAware
07:34AM 36.2410 146.1010 80° East 519 597 38,000  Level FlightAware
07:37AM 36.4491 146.4962 74° East  Level FlightAware Approximate
07:38AM 36.4897 146.6735 74° East  Level FlightAware Approximate
07:39AM 36.5301 146.8510 74° East  Level FlightAware Approximate
07:40AM 36.5702 147.0287 74° East  Level FlightAware Approximate
07:41AM 36.6100 147.2066 74° East  Level FlightAware Approximate
07:42AM 36.6495 147.3846 74° East  Level FlightAware Approximate
07:43AM 36.6888 147.5629 75° East  Level FlightAware Approximate
07:44AM 36.7278 147.7413 75° East  Level FlightAware Approximate
07:45AM 36.7666 147.9199 75° East  Level FlightAware Approximate
07:46AM 36.8051 148.0987 75° East  Level FlightAware Approximate
07:47AM 36.8433 148.2776 75° East  Level FlightAware Approximate
07:48AM 36.8812 148.4568 75° East  Level FlightAware Approximate
07:49AM 36.8976 148.6409 84° East  Level FlightAware Approximate
07:50AM 36.9124 148.8254 84° East  Level FlightAware Approximate
07:51AM 36.9270 149.0100 84° East  Level FlightAware Approximate
07:52AM 36.9412 149.1946 84° East  Level FlightAware Approximate
07:53AM 36.9552 149.3793 85° East  Level FlightAware Approximate
07:54AM 36.9689 149.5641 85° East  Level FlightAware Approximate
07:55AM 36.9823 149.7489 85° East  Level FlightAware Approximate
07:56AM 36.9954 149.9338 85° East  Level FlightAware Approximate
07:57AM 37.0480 150.1029 60° Northeast  Level FlightAware Approximate
07:58AM 37.1226 150.2635 60° Northeast  Level FlightAware Approximate
07:59AM 37.1970 150.4245 60° Northeast  Level FlightAware Approximate
08:00AM 37.2712 150.5857 60° Northeast  Level FlightAware Approximate
08:01AM 37.3451 150.7473 60° Northeast  Level FlightAware Approximate
08:02AM 37.4189 150.9091 60° Northeast  Level FlightAware Approximate
08:03AM 37.4924 151.0713 60° Northeast  Level FlightAware Approximate
08:04AM 37.5657 151.2338 60° Northeast  Level FlightAware Approximate
08:05AM 37.6388 151.3967 60° Northeast  Level FlightAware Approximate
08:06AM 37.7116 151.5598 61° Northeast  Level FlightAware Approximate
08:07AM 37.7842 151.7233 61° Northeast  Level FlightAware Approximate
08:08AM 37.8566 151.8871 61° Northeast  Level FlightAware Approximate
08:09AM 37.9288 152.0512 61° Northeast  Level FlightAware Approximate
08:10AM 38.0007 152.2157 61° Northeast  Level FlightAware Approximate
08:11AM 38.0724 152.3804 61° Northeast  Level FlightAware Approximate
08:12AM 38.1439 152.5455 61° Northeast  Level FlightAware Approximate
08:13AM 38.2152 152.7109 61° Northeast  Level FlightAware Approximate
08:14AM 38.2862 152.8766 61° Northeast  Level FlightAware Approximate
08:15AM 38.3570 153.0427 61° Northeast  Level FlightAware Approximate
08:16AM 38.4275 153.2091 62° Northeast  Level FlightAware Approximate
08:17AM 38.4978 153.3758 62° Northeast  Level FlightAware Approximate
08:18AM 38.5679 153.5428 62° Northeast  Level FlightAware Approximate
08:19AM 38.6377 153.7102 62° Northeast  Level FlightAware Approximate
08:20AM 38.7073 153.8779 62° Northeast  Level FlightAware Approximate
08:21AM 38.7767 154.0459 62° Northeast  Level FlightAware Approximate
08:22AM 38.8458 154.2142 62° Northeast  Level FlightAware Approximate
08:23AM 38.9147 154.3829 62° Northeast  Level FlightAware Approximate
08:24AM 38.9833 154.5519 62° Northeast  Level FlightAware Approximate
08:25AM 39.0517 154.7212 62° Northeast  Level FlightAware Approximate
08:26AM 39.1199 154.8908 63° Northeast  Level FlightAware Approximate
08:27AM 39.1878 155.0608 63° Northeast  Level FlightAware Approximate
08:28AM 39.2554 155.2311 63° Northeast  Level FlightAware Approximate
08:29AM 39.3228 155.4017 63° Northeast  Level FlightAware Approximate
08:30AM 39.3899 155.5727 63° Northeast  Level FlightAware Approximate
08:31AM 39.4568 155.7440 63° Northeast  Level FlightAware Approximate
08:32AM 39.5235 155.9156 63° Northeast  Level FlightAware Approximate
08:33AM 39.5899 156.0875 63° Northeast  Level FlightAware Approximate
08:34AM 39.6560 156.2598 63° Northeast  Level FlightAware Approximate
08:35AM 39.7219 156.4324 64° Northeast  Level FlightAware Approximate
08:36AM 39.7876 156.6053 64° Northeast  Level FlightAware Approximate
08:37AM 39.8529 156.7786 64° Northeast  Level FlightAware Approximate
08:38AM 39.9180 156.9522 64° Northeast  Level FlightAware Approximate
08:39AM 39.9829 157.1261 64° Northeast  Level FlightAware Approximate
08:40AM 40.0475 157.3003 64° Northeast  Level FlightAware Approximate
08:41AM 40.1118 157.4749 64° Northeast  Level FlightAware Approximate
08:42AM 40.1759 157.6498 64° Northeast  Level FlightAware Approximate
08:43AM 40.2397 157.8251 64° Northeast  Level FlightAware Approximate
08:44AM 40.3032 158.0006 65° Northeast  Level FlightAware Approximate
08:45AM 40.3665 158.1765 65° Northeast  Level FlightAware Approximate
08:46AM 40.4295 158.3528 65° Northeast  Level FlightAware Approximate
08:47AM 40.4923 158.5293 65° Northeast  Level FlightAware Approximate
08:48AM 40.5547 158.7062 65° Northeast  Level FlightAware Approximate
08:49AM 40.6169 158.8834 65° Northeast  Level FlightAware Approximate
08:50AM 40.6789 159.0610 65° Northeast  Level FlightAware Approximate
08:51AM 40.7405 159.2389 65° Northeast  Level FlightAware Approximate
08:52AM 40.8019 159.4171 65° Northeast  Level FlightAware Approximate
08:53AM 40.8630 159.5956 66° East  Level FlightAware Approximate
08:54AM 40.9239 159.7745 66° East  Level FlightAware Approximate
08:55AM 40.9844 159.9537 66° East  Level FlightAware Approximate
08:56AM 41.0459 160.1304 65° Northeast  Level FlightAware Approximate
08:57AM 41.1078 160.3072 65° Northeast  Level FlightAware Approximate
08:58AM 41.1695 160.4843 65° Northeast  Level FlightAware Approximate
08:59AM 41.2308 160.6617 65° Northeast  Level FlightAware Approximate
09:00AM 41.2919 160.8394 65° Northeast  Level FlightAware Approximate
09:01AM 41.3527 161.0175 65° Northeast  Level FlightAware Approximate
09:02AM 41.4133 161.1959 66° East  Level FlightAware Approximate
09:03AM 41.4735 161.3746 66° East  Level FlightAware Approximate
09:04AM 41.5335 161.5536 66° East  Level FlightAware Approximate
09:05AM 41.5932 161.7330 66° East  Level FlightAware Approximate
09:06AM 41.6526 161.9128 66° East  Level FlightAware Approximate
09:07AM 41.7118 162.0928 66° East  Level FlightAware Approximate
09:08AM 41.7706 162.2732 66° East  Level FlightAware Approximate
09:09AM 41.8292 162.4539 66° East  Level FlightAware Approximate
09:10AM 41.8889 162.6342 66° East  Level FlightAware Approximate
09:11AM 41.9485 162.8147 66° East  Level FlightAware Approximate
09:12AM 42.0077 162.9955 66° East  Level FlightAware Approximate
09:13AM 42.0667 163.1767 66° East  Level FlightAware Approximate
09:14AM 42.1254 163.3582 66° East  Level FlightAware Approximate
09:15AM 42.1837 163.5400 67° East  Level FlightAware Approximate
09:16AM 42.2418 163.7222 67° East  Level FlightAware Approximate
09:17AM 42.2997 163.9047 67° East  Level FlightAware Approximate
09:18AM 42.3572 164.0875 67° East  Level FlightAware Approximate
09:19AM 42.4144 164.2707 67° East  Level FlightAware Approximate
09:20AM 42.4714 164.4542 67° East  Level FlightAware Approximate
09:21AM 42.5280 164.6380 67° East  Level FlightAware Approximate
09:22AM 42.5844 164.8222 67° East  Level FlightAware Approximate
09:23AM 42.6404 165.0068 68° East  Level FlightAware Approximate
09:24AM 42.6958 165.1918 68° East  Level FlightAware Approximate
09:25AM 42.7509 165.3772 68° East  Level FlightAware Approximate
09:26AM 42.8057 165.5629 68° East  Level FlightAware Approximate
09:27AM 42.8602 165.7489 68° East  Level FlightAware Approximate
09:28AM 42.9144 165.9353 68° East  Level FlightAware Approximate
09:29AM 42.9683 166.1219 68° East  Level FlightAware Approximate
09:30AM 43.0219 166.3089 69° East  Level FlightAware Approximate
09:31AM 43.0752 166.4963 69° East  Level FlightAware Approximate
09:32AM 43.1282 166.6839 69° East  Level FlightAware Approximate
09:33AM 43.1809 166.8719 69° East  Level FlightAware Approximate
09:34AM 43.2333 167.0602 69° East  Level FlightAware Approximate
09:34AM 43.3500 167.4833 69° East 552 635 38,000  Level Oakland Oceanic (ODAPS)
09:35AM 43.2853 167.2489 69° East  Level FlightAware Approximate
09:36AM 43.3371 167.4378 69° East  Level FlightAware Approximate
09:37AM 43.3885 167.6271 69° East  Level FlightAware Approximate
09:38AM 43.4397 167.8167 70° East  Level FlightAware Approximate
09:39AM 43.4905 168.0066 70° East  Level FlightAware Approximate
09:40AM 43.6569 168.6381 70° East 552 635 38,000  Level FlightAware Transoceanic
09:41AM 43.7069 168.8317 70° East 552 635 38,000  Level FlightAware Transoceanic
09:42AM 43.7565 169.0256 71° East 552 635 38,000  Level FlightAware Transoceanic
09:43AM 43.8059 169.2198 71° East 552 635 38,000  Level FlightAware Transoceanic
09:44AM 43.8549 169.4144 71° East 552 635 38,000  Level FlightAware Transoceanic
09:45AM 43.9036 169.6093 71° East 552 635 38,000  Level FlightAware Transoceanic
09:46AM 43.9520 169.8045 71° East 552 635 38,000  Level FlightAware Transoceanic
09:47AM 44.0000 170.0000 79° East 552 635 38,000  Level FlightAware Transoceanic
09:47AM 44.0000 170.0000 79° East 576 663 38,000  Level Oakland Oceanic (ODAPS)
09:48AM 44.0309 170.2133 79° East 552 635 38,000  Level FlightAware Transoceanic
09:48AM 44.0500 170.3167 79° East 585 673 38,000  Level Oakland Oceanic (ODAPS)
09:49AM 44.0614 170.4268 79° East 552 635 38,000  Level FlightAware Transoceanic
09:50AM 44.0916 170.6405 79° East 552 635 38,000  Level FlightAware Transoceanic
09:51AM 44.1213 170.8544 79° East 552 635 38,000  Level FlightAware Transoceanic
09:52AM 44.1506 171.0686 79° East 552 635 38,000  Level FlightAware Transoceanic
09:53AM 44.1833 171.3116 79° East 576 663 38,000  Level FlightAware Transoceanic
09:54AM 44.2313 171.6470 80° East 585 673 38,000  Level FlightAware Transoceanic
09:55AM 44.2600 171.8696 80° East 585 673 38,000  Level FlightAware Transoceanic
09:56AM 44.2883 172.0923 80° East 585 673 38,000  Level FlightAware Transoceanic
09:57AM 44.3162 172.3152 80° East 585 673 38,000  Level FlightAware Transoceanic
09:58AM 44.3436 172.5384 80° East 585 673 38,000  Level FlightAware Transoceanic
09:59AM 44.3705 172.7617 80° East 585 673 38,000  Level FlightAware Transoceanic
10:00AM 44.3971 172.9853 81° East 585 673 38,000  Level FlightAware Transoceanic
10:01AM 44.4232 173.2091 81° East 585 673 38,000  Level FlightAware Transoceanic
10:02AM 44.4489 173.4330 81° East 585 673 38,000  Level FlightAware Transoceanic
10:02AM 44.4500 173.4167 81° East 597 687 38,000  Level Oakland Oceanic (ODAPS)
10:03AM 44.4741 173.6572 81° East 585 673 38,000  Level FlightAware Transoceanic
10:04AM 44.4989 173.8815 81° East 585 673 38,000  Level FlightAware Transoceanic
10:05AM 44.5233 174.1061 81° East 585 673 38,000  Level FlightAware Transoceanic
10:06AM 44.5472 174.3308 82° East 585 673 38,000  Level FlightAware Transoceanic
10:07AM 44.5706 174.5557 82° East 585 673 38,000  Level FlightAware Transoceanic
10:08AM 44.5996 174.8162 82° East 597 687 38,000  Level FlightAware Transoceanic
10:09AM 44.6229 175.0501 82° East 597 687 38,000  Level FlightAware Transoceanic
10:10AM 44.6456 175.2842 82° East 597 687 38,000  Level FlightAware Transoceanic
10:11AM 44.6680 175.5186 82° East 597 687 38,000  Level FlightAware Transoceanic
10:12AM 44.6898 175.7530 83° East 597 687 38,000  Level FlightAware Transoceanic
10:13AM 44.7111 175.9877 83° East 597 687 38,000  Level FlightAware Transoceanic
10:14AM 44.7320 176.2225 83° East 597 687 38,000  Level FlightAware Transoceanic
10:15AM 44.7524 176.4575 83° East 597 687 38,000  Level FlightAware Transoceanic
10:16AM 44.7723 176.6927 83° East 597 687 38,000  Level FlightAware Transoceanic
10:16AM 44.7667 176.6000 83° East 596 686 38,000  Level Oakland Oceanic (ODAPS)
10:17AM 44.7917 176.9280 83° East 597 687 38,000  Level FlightAware Transoceanic
10:18AM 44.8107 177.1635 84° East 597 687 38,000  Level FlightAware Transoceanic
10:19AM 44.8291 177.3991 84° East 597 687 38,000  Level FlightAware Transoceanic
10:20AM 44.8471 177.6349 84° East 597 687 38,000  Level FlightAware Transoceanic
10:21AM 44.8646 177.8708 84° East 597 687 38,000  Level FlightAware Transoceanic
10:22AM 44.8790 178.0537 84° East 596 686 38,000  Level FlightAware Transoceanic
10:23AM 44.8960 178.2966 84° East 596 686 38,000  Level FlightAware Transoceanic
10:24AM 44.9124 178.5395 85° East 596 686 38,000  Level FlightAware Transoceanic
10:25AM 44.9283 178.7826 85° East 596 686 38,000  Level FlightAware Transoceanic
10:26AM 44.9436 179.0258 85° East 596 686 38,000  Level FlightAware Transoceanic
10:27AM 44.9585 179.2692 85° East 596 686 38,000  Level FlightAware Transoceanic
10:28AM 44.9729 179.5127 85° East 596 686 38,000  Level FlightAware Transoceanic
10:29AM 44.9867 179.7563 85° East 596 686 38,000 1,080 Level FlightAware Transoceanic
10:29AM 44.9833 179.8333 82° East 595 685 40,000  Climbing Oakland Oceanic (ODAPS)
10:30AM 45.0000 -180.0000 78° East 596 686 38,000  Descending FlightAware Transoceanic
10:30AM 45.0000 180.0000 78° East 598 688 40,000  Climbing Oakland Oceanic (ODAPS)
10:31AM 45.0323 -179.7772 78° East 596 686 38,000 -1,440 Descending FlightAware Transoceanic
10:32AM 45.0642 -179.5541 79° East 596 686 38,000  Level FlightAware Transoceanic
10:33AM 45.0956 -179.3308 79° East 596 686 38,000  Level FlightAware Transoceanic
10:34AM 45.1266 -179.1072 79° East 596 686 38,000  Level FlightAware Transoceanic
10:35AM 45.1572 -178.8834 79° East 596 686 38,000 960 Level FlightAware Transoceanic
10:36AM 45.1915 -178.6280 79° East 598 688 40,000 960 Climbing FlightAware Transoceanic
10:37AM 45.2218 -178.3985 79° East 598 688 40,000  Level FlightAware Transoceanic
10:38AM 45.2517 -178.1687 80° East 598 688 40,000  Level FlightAware Transoceanic
10:39AM 45.2811 -177.9387 80° East 598 688 40,000  Level FlightAware Transoceanic
10:40AM 45.3100 -177.7084 80° East 598 688 40,000  Level FlightAware Transoceanic
10:41AM 45.3385 -177.4779 80° East 598 688 40,000  Level FlightAware Transoceanic
10:42AM 45.3665 -177.2472 80° East 598 688 40,000  Level FlightAware Transoceanic
10:43AM 45.3940 -177.0163 80° East 598 688 40,000  Level FlightAware Transoceanic
10:43AM 45.4000 -176.9167 80° East 605 696 40,000  Level Oakland Oceanic (ODAPS)
10:44AM 45.4211 -176.7851 81° East 598 688 40,000  Level FlightAware Transoceanic
10:45AM 45.4477 -176.5537 81° East 598 688 40,000  Level FlightAware Transoceanic
10:46AM 45.4738 -176.3221 81° East 598 688 40,000  Level FlightAware Transoceanic
10:47AM 45.4995 -176.0903 81° East 598 688 40,000  Level FlightAware Transoceanic
10:48AM 45.5247 -175.8582 81° East 598 688 40,000  Level FlightAware Transoceanic
10:49AM 45.5494 -175.6260 81° East 598 688 40,000  Level FlightAware Transoceanic
10:50AM 45.5583 -175.4986 81° East 605 696 40,000  Level FlightAware Transoceanic
10:51AM 45.5829 -175.2615 82° East 605 696 40,000  Level FlightAware Transoceanic
10:52AM 45.6071 -175.0242 82° East 605 696 40,000  Level FlightAware Transoceanic
10:53AM 45.6308 -174.7867 82° East 605 696 40,000  Level FlightAware Transoceanic
10:54AM 45.6540 -174.5490 82° East 605 696 40,000  Level FlightAware Transoceanic
10:55AM 45.6767 -174.3111 82° East 605 696 40,000  Level FlightAware Transoceanic
10:56AM 45.6989 -174.0730 82° East 605 696 40,000  Level FlightAware Transoceanic
10:57AM 45.7206 -173.8347 83° East 605 696 40,000  Level FlightAware Transoceanic
10:58AM 45.7418 -173.5962 83° East 605 696 40,000  Level FlightAware Transoceanic
10:58AM 45.7333 -173.6333 83° East 599 689 40,000  Level Oakland Oceanic (ODAPS)
10:59AM 45.7625 -173.3576 83° East 605 696 40,000  Level FlightAware Transoceanic
11:00AM 45.7827 -173.1187 83° East 605 696 40,000  Level FlightAware Transoceanic
11:01AM 45.8024 -172.8798 83° East 605 696 40,000  Level FlightAware Transoceanic
11:02AM 45.8217 -172.6406 84° East 605 696 40,000  Level FlightAware Transoceanic
11:03AM 45.8404 -172.4013 84° East 605 696 40,000  Level FlightAware Transoceanic
11:04AM 45.8642 -172.0481 84° East 599 689 40,000  Level FlightAware Transoceanic
11:05AM 45.8811 -171.8210 84° East 599 689 40,000  Level FlightAware Transoceanic
11:06AM 45.8975 -171.5938 84° East 599 689 40,000  Level FlightAware Transoceanic
11:07AM 45.9135 -171.3665 84° East 599 689 40,000  Level FlightAware Transoceanic
11:08AM 45.9291 -171.1391 84° East 599 689 40,000  Level FlightAware Transoceanic
11:09AM 45.9441 -170.9115 85° East 599 689 40,000  Level FlightAware Transoceanic
11:10AM 45.9588 -170.6838 85° East 599 689 40,000  Level FlightAware Transoceanic
11:11AM 45.9730 -170.4560 85° East 599 689 40,000  Level FlightAware Transoceanic
11:11AM 45.9833 -170.3833 86° East 585 673 40,000  Level Oakland Oceanic (ODAPS)
11:12AM 45.9867 -170.2280 85° East 599 689 40,000  Level FlightAware Transoceanic
11:13AM 46.0000 -170.0000 78° East 599 689 40,000  Level FlightAware Transoceanic
11:13AM 46.0000 -170.0000 78° East 588 677 40,000  Level Oakland Oceanic (ODAPS)
11:14AM 46.0316 -169.7823 78° East 599 689 40,000  Level FlightAware Transoceanic
11:15AM 46.0628 -169.5643 78° East 599 689 40,000  Level FlightAware Transoceanic
11:16AM 46.0935 -169.3461 79° East 599 689 40,000  Level FlightAware Transoceanic
11:17AM 46.1238 -169.1276 79° East 585 673 40,000  Level FlightAware Transoceanic
11:18AM 46.1538 -168.9089 79° East 585 673 40,000  Level FlightAware Transoceanic
11:19AM 46.1914 -168.6289 79° East 588 677 40,000  Level FlightAware Transoceanic
11:20AM 46.2217 -168.3994 79° East 588 677 40,000  Level FlightAware Transoceanic
11:21AM 46.2516 -168.1697 79° East 588 677 40,000  Level FlightAware Transoceanic
11:22AM 46.2810 -167.9398 80° East 588 677 40,000  Level FlightAware Transoceanic
11:23AM 46.3099 -167.7096 80° East 588 677 40,000  Level FlightAware Transoceanic
11:24AM 46.3383 -167.4792 80° East 588 677 40,000  Level FlightAware Transoceanic
11:25AM 46.3663 -167.2486 80° East 588 677 40,000  Level FlightAware Transoceanic
11:25AM 46.3667 -167.2000 80° East 579 666 40,000  Level Oakland Oceanic (ODAPS)
11:26AM 46.3939 -167.0177 80° East 588 677 40,000  Level FlightAware Transoceanic
11:27AM 46.4210 -166.7865 80° East 588 677 40,000  Level FlightAware Transoceanic
11:28AM 46.4476 -166.5552 81° East 588 677 40,000  Level FlightAware Transoceanic
11:29AM 46.4737 -166.3236 81° East 588 677 40,000  Level FlightAware Transoceanic
11:30AM 46.4994 -166.0918 81° East 588 677 40,000  Level FlightAware Transoceanic
11:31AM 46.5243 -165.8205 81° East 579 666 40,000  Level FlightAware Transoceanic
11:32AM 46.5490 -165.5899 81° East 579 666 40,000  Level FlightAware Transoceanic
11:33AM 46.5732 -165.3590 81° East 579 666 40,000  Level FlightAware Transoceanic
11:34AM 46.5969 -165.1279 82° East 579 666 40,000  Level FlightAware Transoceanic
11:35AM 46.6202 -164.8966 82° East 579 666 40,000  Level FlightAware Transoceanic
11:36AM 46.6430 -164.6651 82° East 579 666 40,000  Level FlightAware Transoceanic
11:37AM 46.6653 -164.4335 82° East 579 666 40,000  Level FlightAware Transoceanic
11:38AM 46.6872 -164.2016 82° East 579 666 40,000  Level FlightAware Transoceanic
11:39AM 46.7086 -163.9695 82° East 579 666 40,000  Level FlightAware Transoceanic
11:39AM 46.7000 -164.0333 82° East 571 657 40,000  Level Oakland Oceanic (ODAPS)
11:40AM 46.7295 -163.7373 83° East 579 666 40,000  Level FlightAware Transoceanic
11:41AM 46.7500 -163.5049 83° East 579 666 40,000  Level FlightAware Transoceanic
11:42AM 46.7700 -163.2723 83° East 579 666 40,000  Level FlightAware Transoceanic
11:43AM 46.7895 -163.0396 83° East 579 666 40,000  Level FlightAware Transoceanic
11:44AM 46.8085 -162.8066 83° East 579 666 40,000  Level FlightAware Transoceanic
11:45AM 46.8157 -162.6940 83° East 571 657 40,000  Level FlightAware Transoceanic
11:46AM 46.8335 -162.4703 83° East 571 657 40,000  Level FlightAware Transoceanic
11:47AM 46.8508 -162.2464 84° East 571 657 40,000  Level FlightAware Transoceanic
11:48AM 46.8677 -162.0223 84° East 571 657 40,000  Level FlightAware Transoceanic
11:49AM 46.8842 -161.7981 84° East 571 657 40,000  Level FlightAware Transoceanic
11:50AM 46.9002 -161.5738 84° East 571 657 40,000  Level FlightAware Transoceanic
11:51AM 46.9158 -161.3493 84° East 571 657 40,000  Level FlightAware Transoceanic
11:52AM 46.9309 -161.1247 84° East 571 657 40,000  Level FlightAware Transoceanic
11:53AM 46.9456 -160.9000 85° East 571 657 40,000  Level FlightAware Transoceanic
11:53AM 46.9500 -160.8833 85° East 563 648 40,000  Level Oakland Oceanic (ODAPS)
11:54AM 46.9599 -160.6752 85° East 571 657 40,000  Level FlightAware Transoceanic
11:55AM 46.9737 -160.4502 85° East 571 657 40,000  Level FlightAware Transoceanic
11:56AM 46.9871 -160.2252 85° East 571 657 40,000  Level FlightAware Transoceanic
11:56AM 47.0000 -160.0000 95° East 550 633 40,000  Level Oakland Oceanic (ODAPS)
11:57AM 47.0000 -160.0000 95° East 571 657 40,000  Level FlightAware Transoceanic
11:58AM 46.9882 -159.7884 95° East 571 657 40,000  Level FlightAware Transoceanic
11:59AM 46.9759 -159.5769 95° East 563 648 40,000  Level FlightAware Transoceanic
12:00PM 46.9633 -159.3655 95° East 563 648 40,000  Level FlightAware Transoceanic
12:01PM 46.9503 -159.1542 95° East 563 648 40,000  Level FlightAware Transoceanic
12:02PM 46.9369 -158.9430 95° East 563 648 40,000  Level FlightAware Transoceanic
12:03PM 46.9175 -158.6475 96° East 550 633 40,000  Level FlightAware Transoceanic
12:04PM 46.9022 -158.4225 96° East 550 633 40,000  Level FlightAware Transoceanic
12:05PM 46.8864 -158.1976 96° East 550 633 40,000  Level FlightAware Transoceanic
12:06PM 46.8703 -157.9729 96° East 550 633 40,000  Level FlightAware Transoceanic
12:06PM 46.8500 -157.7833 96° East 539 620 40,000  Level Oakland Oceanic (ODAPS)
12:07PM 46.8536 -157.7483 96° East 550 633 40,000  Level FlightAware Transoceanic
12:08PM 46.8366 -157.5239 96° East 550 633 40,000  Level FlightAware Transoceanic
12:09PM 46.8191 -157.2996 97° East 550 633 40,000  Level FlightAware Transoceanic
12:10PM 46.8012 -157.0754 97° East 550 633 40,000  Level FlightAware Transoceanic
12:11PM 46.7828 -156.8514 97° East 550 633 40,000  Level FlightAware Transoceanic
12:12PM 46.7640 -156.6275 97° East 550 633 40,000  Level FlightAware Transoceanic
12:13PM 46.7453 -156.4703 97° East 539 620 40,000  Level FlightAware Transoceanic
12:14PM 46.7263 -156.2520 97° East 539 620 40,000  Level FlightAware Transoceanic
12:15PM 46.7070 -156.0338 97° East 539 620 40,000  Level FlightAware Transoceanic
12:16PM 46.6873 -155.8158 98° East 539 620 40,000  Level FlightAware Transoceanic
12:17PM 46.6671 -155.5979 98° East 539 620 40,000  Level FlightAware Transoceanic
12:18PM 46.6465 -155.3802 98° East 539 620 40,000  Level FlightAware Transoceanic
12:19PM 46.6256 -155.1627 98° East 539 620 40,000  Level FlightAware Transoceanic
12:20PM 46.6042 -154.9454 98° East 539 620 40,000  Level FlightAware Transoceanic
12:20PM 46.6000 -154.8333 98° East 529 609 40,000  Level Oakland Oceanic (ODAPS)
12:21PM 46.5824 -154.7282 98° East 539 620 40,000  Level FlightAware Transoceanic
12:22PM 46.5602 -154.5112 99° East 539 620 40,000  Level FlightAware Transoceanic
12:23PM 46.5375 -154.2944 99° East 539 620 40,000  Level FlightAware Transoceanic
12:24PM 46.5145 -154.0777 99° East 539 620 40,000  Level FlightAware Transoceanic
12:25PM 46.4910 -153.8613 99° East 539 620 40,000  Level FlightAware Transoceanic
12:26PM 46.4672 -153.6450 99° East 539 620 40,000  Level FlightAware Transoceanic
12:27PM 46.4632 -153.5625 99° East 529 609 40,000  Level FlightAware Transoceanic
12:28PM 46.4390 -153.3513 100° East 529 609 40,000  Level FlightAware Transoceanic
12:29PM 46.4145 -153.1403 100° East 529 609 40,000  Level FlightAware Transoceanic
12:30PM 46.3895 -152.9295 100° East 529 609 40,000  Level FlightAware Transoceanic
12:31PM 46.3642 -152.7189 100° East 529 609 40,000  Level FlightAware Transoceanic
12:32PM 46.3385 -152.5085 100° East 529 609 40,000  Level FlightAware Transoceanic
12:33PM 46.3124 -152.2983 100° East 529 609 40,000  Level FlightAware Transoceanic
12:34PM 46.2859 -152.0883 100° East 529 609 40,000  Level FlightAware Transoceanic
12:34PM 46.2667 -151.9500 100° East 522 601 40,000  Level Oakland Oceanic (ODAPS)
12:35PM 46.2590 -151.8786 101° East 529 609 40,000  Level FlightAware Transoceanic
12:36PM 46.2318 -151.6690 101° East 529 609 40,000  Level FlightAware Transoceanic
12:37PM 46.2041 -151.4596 101° East 529 609 40,000  Level FlightAware Transoceanic
12:38PM 46.1761 -151.2504 101° East 529 609 40,000  Level FlightAware Transoceanic
12:39PM 46.1477 -151.0415 101° East 529 609 40,000  Level FlightAware Transoceanic
12:40PM 46.1189 -150.8327 101° East 529 609 40,000  Level FlightAware Transoceanic
12:41PM 46.0835 -150.5830 101° East 522 601 40,000  Level FlightAware Transoceanic
12:42PM 46.0560 -150.3885 102° East 522 601 40,000  Level FlightAware Transoceanic
12:43PM 46.0281 -150.1941 102° East 522 601 40,000  Level FlightAware Transoceanic
12:44PM 46.0000 -150.0000 109° East 522 601 40,000  Level FlightAware Transoceanic
12:44PM 46.0000 -150.0000 109° East 528 608 40,000  Level Oakland Oceanic (ODAPS)
12:45PM 45.9535 -149.8091 109° East 522 601 40,000  Level FlightAware Transoceanic
12:46PM 45.9067 -149.6186 110° East 522 601 40,000  Level FlightAware Transoceanic
12:47PM 45.8596 -149.4283 110° East 522 601 40,000  Level FlightAware Transoceanic
12:48PM 45.8121 -149.2384 110° East 522 601 40,000  Level FlightAware Transoceanic
12:48PM 45.8000 -149.1500 110° East 526 605 40,000  Level Oakland Oceanic (ODAPS)
12:49PM 45.7644 -149.0489 110° East 522 601 40,000  Level FlightAware Transoceanic
12:50PM 45.7054 -148.8168 110° East 528 608 40,000  Level FlightAware Transoceanic
12:51PM 45.6551 -148.6208 110° East 528 608 40,000  Level FlightAware Transoceanic
12:52PM 45.6045 -148.4252 110° East 528 608 40,000  Level FlightAware Transoceanic
12:53PM 45.5535 -148.2299 111° Southeast 528 608 40,000  Level FlightAware Transoceanic
12:54PM 45.4974 -147.9829 111° Southeast 526 605 40,000  Level FlightAware Transoceanic
12:55PM 45.4458 -147.7896 111° Southeast 526 605 40,000  Level FlightAware Transoceanic
12:56PM 45.3939 -147.5967 111° Southeast 526 605 40,000  Level FlightAware Transoceanic
12:57PM 45.3416 -147.4041 111° Southeast 526 605 40,000  Level FlightAware Transoceanic
12:58PM 45.2891 -147.2119 111° Southeast 526 605 40,000  Level FlightAware Transoceanic
12:59PM 45.2362 -147.0201 111° Southeast 526 605 40,000  Level FlightAware Transoceanic
01:00PM 45.1830 -146.8286 112° Southeast 526 605 40,000  Level FlightAware Transoceanic
01:01PM 45.1295 -146.6374 112° Southeast 526 605 40,000  Level FlightAware Transoceanic
01:02PM 45.0756 -146.4466 112° Southeast 526 605 40,000 720 Level FlightAware Transoceanic
01:02PM 45.0667 -146.4667 112° Southeast 522 601 41,000  Climbing Oakland Oceanic (ODAPS)
01:03PM 45.0215 -146.2562 112° Southeast 526 605 40,000 -660 Descending FlightAware Transoceanic
01:04PM 44.9670 -146.0661 112° Southeast 526 605 40,000  Level FlightAware Transoceanic
01:05PM 44.9122 -145.8764 112° Southeast 526 605 40,000  Level FlightAware Transoceanic
01:06PM 44.8571 -145.6871 112° Southeast 526 605 40,000  Level FlightAware Transoceanic
01:07PM 44.8017 -145.4981 113° Southeast 526 605 40,000 480 Level FlightAware Transoceanic
01:08PM 44.7387 -145.3262 112° Southeast 522 601 41,000 480 Climbing FlightAware Transoceanic
01:09PM 44.6829 -145.1373 113° Southeast 522 601 41,000  Level FlightAware Transoceanic
01:10PM 44.6269 -144.9489 113° Southeast 522 601 41,000  Level FlightAware Transoceanic
01:11PM 44.5705 -144.7608 113° Southeast 522 601 41,000  Level FlightAware Transoceanic
01:12PM 44.5138 -144.5731 113° Southeast 522 601 41,000  Level FlightAware Transoceanic
01:13PM 44.4568 -144.3857 113° Southeast 522 601 41,000  Level FlightAware Transoceanic
01:14PM 44.3995 -144.1987 113° Southeast 522 601 41,000  Level FlightAware Transoceanic
01:15PM 44.3419 -144.0121 113° Southeast 522 601 41,000  Level FlightAware Transoceanic
01:16PM 44.2840 -143.8259 114° Southeast 522 601 41,000  Level FlightAware Transoceanic
01:16PM 44.3000 -143.8667 114° Southeast 522 601 41,000  Level Oakland Oceanic (ODAPS)
01:17PM 44.2258 -143.6400 114° Southeast 522 601 41,000  Level FlightAware Transoceanic
01:18PM 44.1673 -143.4545 114° Southeast 522 601 41,000  Level FlightAware Transoceanic
01:19PM 44.1085 -143.2693 114° Southeast 522 601 41,000  Level FlightAware Transoceanic
01:20PM 44.0493 -143.0845 114° Southeast 522 601 41,000  Level FlightAware Transoceanic
01:21PM 43.9899 -142.9001 114° Southeast 522 601 41,000  Level FlightAware Transoceanic
01:22PM 43.9420 -142.7448 114° Southeast 522 601 41,000  Level FlightAware Transoceanic
01:23PM 43.8812 -142.5592 114° Southeast 522 601 41,000  Level FlightAware Transoceanic
01:24PM 43.8202 -142.3739 115° Southeast 522 601 41,000  Level FlightAware Transoceanic
01:25PM 43.7589 -142.1890 115° Southeast 522 601 41,000  Level FlightAware Transoceanic
01:26PM 43.6972 -142.0045 115° Southeast 522 601 41,000  Level FlightAware Transoceanic
01:27PM 43.6353 -141.8204 115° Southeast 522 601 41,000  Level FlightAware Transoceanic
01:28PM 43.5731 -141.6366 115° Southeast 522 601 41,000  Level FlightAware Transoceanic
01:29PM 43.5106 -141.4533 115° Southeast 522 601 41,000  Level FlightAware Transoceanic
01:30PM 43.4477 -141.2703 115° Southeast 522 601 41,000  Level FlightAware Transoceanic
01:30PM 43.4667 -141.3333 115° Southeast 521 600 41,000  Level Oakland Oceanic (ODAPS)
01:31PM 43.3846 -141.0877 116° Southeast 522 601 41,000  Level FlightAware Transoceanic
01:32PM 43.3213 -140.9054 116° Southeast 522 601 41,000  Level FlightAware Transoceanic
01:33PM 43.2576 -140.7236 116° Southeast 522 601 41,000  Level FlightAware Transoceanic
01:34PM 43.1936 -140.5421 116° Southeast 522 601 41,000  Level FlightAware Transoceanic
01:35PM 43.1294 -140.3610 116° Southeast 522 601 41,000  Level FlightAware Transoceanic
01:36PM 43.0676 -140.1892 116° Southeast 521 600 41,000  Level FlightAware Transoceanic
01:37PM 43.0000 -140.0000 115° Southeast 521 600 41,000  Level FlightAware Transoceanic
01:37PM 43.0000 -140.0000 115° Southeast 532 612 41,000  Level Oakland Oceanic (ODAPS)
01:38PM 42.9407 -139.8233 115° Southeast 521 600 41,000  Level FlightAware Transoceanic
01:39PM 42.8812 -139.6470 115° Southeast 521 600 41,000  Level FlightAware Transoceanic
01:40PM 42.8214 -139.4710 115° Southeast 521 600 41,000  Level FlightAware Transoceanic
01:41PM 42.7613 -139.2953 115° Southeast 521 600 41,000  Level FlightAware Transoceanic
01:42PM 42.7009 -139.1200 115° Southeast 521 600 41,000  Level FlightAware Transoceanic
01:43PM 42.6403 -138.9450 115° Southeast 521 600 41,000  Level FlightAware Transoceanic
01:43PM 42.6000 -138.8333 115° Southeast 535 616 41,000  Level Oakland Oceanic (ODAPS)
01:44PM 42.5647 -138.7283 115° Southeast 532 612 41,000  Level FlightAware Transoceanic
01:45PM 42.5013 -138.5480 116° Southeast 532 612 41,000  Level FlightAware Transoceanic
01:46PM 42.4377 -138.3682 116° Southeast 532 612 41,000  Level FlightAware Transoceanic
01:47PM 42.3738 -138.1887 116° Southeast 532 612 41,000  Level FlightAware Transoceanic
01:48PM 42.3096 -138.0096 116° Southeast 532 612 41,000  Level FlightAware Transoceanic
01:49PM 42.2452 -137.8308 116° Southeast 532 612 41,000  Level FlightAware Transoceanic
01:50PM 42.2125 -137.7440 116° Southeast 535 616 41,000  Level FlightAware Transoceanic
01:51PM 42.1469 -137.5638 116° Southeast 535 616 41,000  Level FlightAware Transoceanic
01:52PM 42.0811 -137.3839 116° Southeast 535 616 41,000  Level FlightAware Transoceanic
01:53PM 42.0149 -137.2044 116° Southeast 535 616 41,000  Level FlightAware Transoceanic
01:54PM 41.9485 -137.0253 117° Southeast 535 616 41,000  Level FlightAware Transoceanic
01:55PM 41.8818 -136.8466 117° Southeast 535 616 41,000  Level FlightAware Transoceanic
01:56PM 41.8148 -136.6682 117° Southeast 535 616 41,000  Level FlightAware Transoceanic
01:57PM 41.7476 -136.4902 117° Southeast 535 616 41,000  Level FlightAware Transoceanic
01:57PM 41.7000 -136.3500 117° Southeast 539 620 41,000  Level Oakland Oceanic (ODAPS)
01:58PM 41.6801 -136.3126 117° Southeast 535 616 41,000  Level FlightAware Transoceanic
01:59PM 41.6123 -136.1353 117° Southeast 535 616 41,000  Level FlightAware Transoceanic
02:00PM 41.5442 -135.9584 117° Southeast 535 616 41,000  Level FlightAware Transoceanic
02:01PM 41.4759 -135.7819 117° Southeast 535 616 41,000  Level FlightAware Transoceanic
02:02PM 41.4073 -135.6058 118° Southeast 535 616 41,000  Level FlightAware Transoceanic
02:03PM 41.3384 -135.4300 118° Southeast 535 616 41,000  Level FlightAware Transoceanic
02:04PM 41.2862 -135.2855 118° Southeast 539 620 41,000  Level FlightAware Transoceanic
02:05PM 41.2163 -135.1094 118° Southeast 539 620 41,000  Level FlightAware Transoceanic
02:06PM 41.1461 -134.9337 118° Southeast 539 620 41,000  Level FlightAware Transoceanic
02:07PM 41.0757 -134.7584 118° Southeast 539 620 41,000  Level FlightAware Transoceanic
02:08PM 41.0050 -134.5834 118° Southeast 539 620 41,000  Level FlightAware Transoceanic
02:09PM 40.9340 -134.4088 118° Southeast 539 620 41,000  Level FlightAware Transoceanic
02:10PM 40.8628 -134.2346 118° Southeast 539 620 41,000  Level FlightAware Transoceanic
02:11PM 40.7913 -134.0608 119° Southeast 539 620 41,000  Level FlightAware Transoceanic
02:11PM 40.7333 -133.9000 119° Southeast 540 621 41,000  Level Oakland Oceanic (ODAPS)
02:12PM 40.7195 -133.8873 119° Southeast 539 620 41,000  Level FlightAware Transoceanic
02:13PM 40.6475 -133.7142 119° Southeast 539 620 41,000  Level FlightAware Transoceanic
02:14PM 40.5752 -133.5415 119° Southeast 539 620 41,000  Level FlightAware Transoceanic
02:15PM 40.5027 -133.3692 119° Southeast 539 620 41,000  Level FlightAware Transoceanic
02:16PM 40.4299 -133.1972 119° Southeast 539 620 41,000  Level FlightAware Transoceanic
02:17PM 40.3677 -133.0354 119° Southeast 540 621 41,000  Level FlightAware Transoceanic
02:18PM 40.2939 -132.8636 119° Southeast 540 621 41,000  Level FlightAware Transoceanic
02:19PM 40.2197 -132.6921 120° Southeast 540 621 41,000  Level FlightAware Transoceanic
02:20PM 40.1453 -132.5211 120° Southeast 540 621 41,000  Level FlightAware Transoceanic
02:21PM 40.0707 -132.3504 120° Southeast 540 621 41,000  Level FlightAware Transoceanic
02:22PM 39.9958 -132.1801 120° Southeast 540 621 41,000  Level FlightAware Transoceanic
02:23PM 39.9207 -132.0102 120° Southeast 540 621 41,000  Level FlightAware Transoceanic
02:24PM 39.8453 -131.8406 120° Southeast 540 621 41,000  Level FlightAware Transoceanic
02:25PM 39.7696 -131.6714 120° Southeast 540 621 41,000  Level FlightAware Transoceanic
02:25PM 39.7167 -131.5500 120° Southeast 537 618 41,000  Level Oakland Oceanic (ODAPS)
02:26PM 39.6937 -131.5026 120° Southeast 540 621 41,000  Level FlightAware Transoceanic
02:27PM 39.6176 -131.3342 120° Southeast 540 621 41,000  Level FlightAware Transoceanic
02:28PM 39.5413 -131.1661 121° Southeast 540 621 41,000  Level FlightAware Transoceanic
02:29PM 39.4646 -130.9984 121° Southeast 540 621 41,000  Level FlightAware Transoceanic
02:30PM 39.3878 -130.8311 121° Southeast 540 621 41,000  Level FlightAware Transoceanic
02:31PM 39.2891 -130.6162 121° Southeast 537 618 41,000  Level FlightAware Transoceanic
02:32PM 39.2172 -130.4617 121° Southeast 537 618 41,000  Level FlightAware Transoceanic
02:33PM 39.1450 -130.3075 121° Southeast 537 618 41,000  Level FlightAware Transoceanic
02:34PM 39.0726 -130.1536 121° Southeast 537 618 41,000  Level FlightAware Transoceanic
02:35PM 39.0000 -130.0000 102° East 537 618 41,000  Level FlightAware Transoceanic
02:35PM 39.0000 -130.0000 102° East 535 616 41,000  Level Oakland Oceanic (ODAPS)
02:36PM 38.9708 -129.8223 102° East 537 618 41,000  Level FlightAware Transoceanic
02:37PM 38.9412 -129.6448 102° East 537 618 41,000  Level FlightAware Transoceanic
02:38PM 38.9115 -129.4674 102° East 537 618 41,000  Level FlightAware Transoceanic
02:39PM 38.8814 -129.2901 102° East 537 618 41,000  Level FlightAware Transoceanic
02:39PM 38.8667 -129.2000 102° East 530 610 41,000  Level Oakland Oceanic (ODAPS)
02:40PM 38.8511 -129.1130 102° East 537 618 41,000  Level FlightAware Transoceanic
02:41PM 38.8090 -128.8698 103° East 535 616 41,000  Level FlightAware Transoceanic
02:42PM 38.7761 -128.6820 103° East 535 616 41,000  Level FlightAware Transoceanic
02:43PM 38.7429 -128.4944 103° East 535 616 41,000  Level FlightAware Transoceanic
02:44PM 38.7094 -128.3070 103° East 535 616 41,000  Level FlightAware Transoceanic
02:45PM 38.6718 -128.0969 103° East 530 610 41,000  Level FlightAware Transoceanic
02:46PM 38.6383 -127.9137 103° East 530 610 41,000  Level FlightAware Transoceanic
02:47PM 38.6046 -127.7306 103° East 530 610 41,000  Level FlightAware Transoceanic
02:48PM 38.5705 -127.5477 103° East 530 610 41,000  Level FlightAware Transoceanic
02:48PM 38.5422 -127.4881 111° Southeast 528 608 41,000  Level Oakland Center
02:49PM 38.5362 -127.3649 104° East 530 610 41,000  Level FlightAware Transoceanic
02:50PM 38.5016 -127.1824 104° East 530 610 41,000  Level FlightAware Transoceanic
02:51PM 38.4667 -127.0000 111° Southeast 530 610 41,000  Level FlightAware Transoceanic
02:52PM 38.4158 -126.8324 111° Southeast 530 610 41,000  Level FlightAware Transoceanic
02:53PM 38.3646 -126.6650 111° Southeast 530 610 41,000  Level FlightAware Transoceanic
02:54PM 38.3132 -126.4979 111° Southeast 530 610 41,000  Level FlightAware Transoceanic
02:54PM 38.2390 -126.5420 111° Southeast 516 594 41,000  Level FlightAware
02:55PM 38.1900 -126.4020 114° Southeast 513 590 41,000  Level FlightAware
02:55PM 38.1500 -126.2900 114° Southeast 513 590 41,000  Level FlightAware
02:56PM 38.1150 -126.1930 115° Southeast 515 593 41,000  Level FlightAware
02:56PM 38.0820 -126.1000 114° Southeast 515 593 41,000  Level FlightAware
02:57PM 38.0490 -126.0100 115° Southeast 514 592 41,000  Level FlightAware
02:58PM 38.0150 -125.9160 115° Southeast 512 589 41,000  Level FlightAware
02:58PM 37.9770 -125.8120 115° Southeast 511 588 41,000  Level FlightAware
02:59PM 37.9280 -125.6770 115° Southeast 510 587 41,000  Level FlightAware
03:00PM 37.8960 -125.5900 115° Southeast 511 588 41,000  Level FlightAware
03:00PM 37.8570 -125.4820 115° Southeast 512 589 41,000  Level FlightAware
03:01PM 37.8330 -125.4160 115° Southeast 512 589 41,000  Level FlightAware
03:01PM 37.7890 -125.2980 115° Southeast 508 585 41,000  Level FlightAware
03:02PM 37.7530 -125.2000 115° Southeast 506 582 41,000  Level FlightAware
03:02PM 37.7220 -125.1180 116° Southeast 498 573 41,000  Level FlightAware
03:03PM 37.6870 -125.0240 115° Southeast 496 571 41,000  Level FlightAware
03:04PM 37.6530 -124.9310 115° Southeast 499 574 41,000  Level FlightAware
03:04PM 37.6210 -124.8460 115° Southeast 501 577 41,000  Level FlightAware
03:05PM 37.5850 -124.7500 115° Southeast 498 573 41,000  Level FlightAware
03:05PM 37.5470 -124.6510 116° Southeast 495 570 41,000  Level FlightAware
03:06PM 37.5120 -124.5580 115° Southeast 495 570 41,000  Level FlightAware
03:07PM 37.4810 -124.4750 115° Southeast 496 571 41,000  Level FlightAware
03:07PM 37.4290 -124.3380 116° Southeast 497 572 41,000  Level FlightAware
03:08PM 37.3970 -124.2550 116° Southeast 498 573 41,000  Level FlightAware
03:09PM 37.3640 -124.1680 115° Southeast 501 577 41,000  Level FlightAware
03:09PM 37.3280 -124.0750 116° Southeast 500 575 41,000  Level FlightAware
03:10PM 37.2950 -123.9890 116° Southeast 496 571 41,000  Level FlightAware
03:10PM 37.2550 -123.8840 116° Southeast 494 568 41,000  Level FlightAware
03:11PM 37.2430 -123.8540 117° Southeast 494 568 41,000  Level FlightAware
03:11PM 37.1890 -123.7150 116° Southeast 494 568 41,000  Level FlightAware
03:12PM 37.1570 -123.6330 116° Southeast 494 568 41,000  Level FlightAware
03:13PM 37.1169 -123.5310 116° Southeast 495 570 41,000  Level FlightAware ADS-B
03:13PM 37.0863 -123.4520 116° Southeast 493 567 41,000  Level FlightAware ADS-B
03:14PM 37.0510 -123.3620 116° Southeast 490 564 41,000  Level FlightAware
03:14PM 37.0333 -123.3180 117° Southeast 493 567 41,000  Level FlightAware ADS-B
03:15PM 36.9993 -123.2320 116° Southeast 488 562 41,000  Level FlightAware ADS-B
03:16PM 36.9420 -123.0880 116° Southeast 489 563 41,000  Level FlightAware
03:16PM 36.9287 -123.0530 115° Southeast 491 565 41,000  Level FlightAware ADS-B
03:16PM 36.8887 -122.9530 117° Southeast 495 570 41,000  Level FlightAware ADS-B
03:17PM 36.8489 -122.8530 116° Southeast 493 567 41,000  Level FlightAware ADS-B
03:18PM 36.8179 -122.7760 117° Southeast 492 566 41,000  Level FlightAware ADS-B
03:19PM 36.7596 -122.6300 116° Southeast 492 566 41,000  Level FlightAware ADS-B
03:19PM 36.7156 -122.5210 117° Southeast 492 566 41,000  Level FlightAware ADS-B
03:20PM 36.6610 -122.3860 117° Southeast 490 564 41,000  Level FlightAware
03:20PM 36.6502 -122.3600 117° Southeast 490 564 41,000  Level FlightAware ADS-B
03:21PM 36.6186 -122.2820 117° Southeast 490 564 41,000  Level FlightAware ADS-B
03:22PM 36.5746 -122.1740 117° Southeast 488 562 41,000  Level FlightAware ADS-B
03:22PM 36.5425 -122.0960 117° Southeast 488 562 41,000  Level FlightAware ADS-B
03:23PM 36.4840 -121.9540 117° Southeast 485 558 41,000  Level FlightAware
03:24PM 36.4530 -121.8770 117° Southeast 485 558 41,000  Level FlightAware
03:24PM 36.4170 -121.7900 117° Southeast 487 560 41,000  Level FlightAware
03:25PM 36.3820 -121.7060 117° Southeast 487 560 41,000  Level FlightAware
03:25PM 36.3520 -121.6330 117° Southeast 485 558 41,000  Level FlightAware
03:26PM 36.3090 -121.5300 117° Southeast 485 558 41,000  Level FlightAware
03:26PM 36.2750 -121.4480 117° Southeast 483 556 41,000  Level FlightAware
03:27PM 36.2370 -121.3590 118° Southeast 484 557 41,000  Level FlightAware
03:28PM 36.2030 -121.2770 117° Southeast 483 556 41,000  Level FlightAware
03:28PM 36.1537 -121.1760 121° Southeast 483 556 41,000  Level FlightAware ADS-B
03:29PM 36.0730 -121.0360 125° Southeast 487 560 41,000  Level FlightAware
03:30PM 36.0556 -121.0060 126° Southeast 488 562 41,000  Level FlightAware ADS-B
03:31PM 35.9850 -120.8820 125° Southeast 489 563 41,000  Level FlightAware
03:31PM 35.9390 -120.8040 126° Southeast 490 564 41,000  Level FlightAware
03:32PM 35.8890 -120.7330 131° Southeast 485 558 41,000  Level FlightAware
03:32PM 35.8320 -120.6620 135° Southeast 482 555 41,000  Level FlightAware
03:33PM 35.7760 -120.5920 135° Southeast 481 554 41,000  Level FlightAware
03:33PM 35.7200 -120.5230 135° Southeast 484 557 41,000  Level FlightAware
03:34PM 35.6590 -120.4480 135° Southeast 485 558 41,000  Level FlightAware
03:35PM 35.5960 -120.3700 135° Southeast 481 554 41,000  Level FlightAware
03:35PM 35.5270 -120.2860 135° Southeast 478 550 41,000  Level FlightAware
03:36PM 35.4720 -120.2170 134° Southeast 475 547 41,000  Level FlightAware
03:37PM 35.4190 -120.1530 135° Southeast 476 548 41,000 -420 Level FlightAware
03:37PM 35.3630 -120.0850 135° Southeast 477 549 40,500 -1,140 Descending FlightAware
03:38PM 35.3070 -120.0160 135° Southeast 474 545 39,600 -1,560 Descending FlightAware
03:38PM 35.2540 -119.9520 135° Southeast 478 550 38,700 -1,440 Descending FlightAware
03:39PM 35.1950 -119.8810 135° Southeast 472 543 38,000 -1,200 Descending FlightAware
03:40PM 35.1440 -119.8180 135° Southeast 469 540 37,300 -1,920 Descending FlightAware
03:40PM 35.0750 -119.7360 136° Southeast 464 534 35,600 -2,700 Descending FlightAware
03:41PM 35.0180 -119.6670 135° Southeast 470 541 33,800 -3,060 Descending FlightAware
03:41PM 34.9680 -119.6080 136° Southeast 478 550 32,100 -3,360 Descending FlightAware
03:42PM 34.9110 -119.5390 135° Southeast 488 562 29,900 -3,240 Descending FlightAware
03:43PM 34.8410 -119.4560 136° Southeast 492 566 27,900 -2,820 Descending FlightAware
03:43PM 34.7830 -119.3850 135° Southeast 482 555 26,300 -2,640 Descending FlightAware
03:44PM 34.7240 -119.3160 136° Southeast 473 544 24,700 -2,580 Descending FlightAware
03:45PM 34.6760 -119.2580 135° Southeast 465 535 23,400 -2,520 Descending FlightAware
03:45PM 34.6180 -119.1900 136° Southeast 451 519 21,800 -2,520 Descending FlightAware
03:46PM 34.5710 -119.1340 136° Southeast 441 507 20,500 -2,460 Descending FlightAware
03:46PM 34.5220 -119.0750 135° Southeast 431 496 19,100 -2,400 Descending FlightAware
03:47PM 34.4720 -119.0170 136° Southeast 420 483 17,700 -2,460 Descending FlightAware
03:47PM 34.4210 -118.9570 136° Southeast 412 474 16,200 -2,460 Descending FlightAware
03:48PM 34.3690 -118.8980 137° Southeast 402 463 14,700 -2,460 Descending FlightAware
03:49PM 34.3170 -118.8670 154° Southeast 392 451 13,400 -2,040 Descending FlightAware
03:49PM 34.2570 -118.8450 163° South 372 428 12,500 -1,080 Descending FlightAware
03:50PM 34.2060 -118.8260 163° South 342 394 12,200 -780 Descending FlightAware
03:50PM 34.1520 -118.8060 163° South 325 374 11,600 -840 Descending FlightAware
03:51PM 34.0980 -118.7860 163° South 311 358 11,200 -600 Descending FlightAware
03:51PM 34.0630 -118.7710 160° South 294 338 11,000 -540 Descending FlightAware
03:52PM 34.0440 -118.7480 135° Southeast 292 336 10,800 -840 Descending FlightAware
03:52PM 34.0350 -118.7220 113° Southeast 296 341 10,500 -1,020 Descending FlightAware
03:53PM 34.0300 -118.6720 97° East 286 329 10,000 -1,020 Descending FlightAware
03:53PM 34.0280 -118.6430 95° East 282 325 9,700 -1,020 Descending FlightAware
03:53PM 34.0250 -118.6130 97° East 280 322 9,400 -1,080 Descending FlightAware
03:54PM 34.0220 -118.5830 97° East 279 321 9,000 -1,260 Descending FlightAware
03:54PM 34.0190 -118.5520 97° East 278 320 8,600 -1,200 Descending FlightAware
03:54PM 34.0160 -118.5190 96° East 277 319 8,200 -1,080 Descending FlightAware
03:55PM 34.0130 -118.4830 96° East 276 318 7,800 -1,200 Descending FlightAware
03:55PM 34.0110 -118.4630 97° East 276 318 7,500 -1,020 Descending FlightAware
03:55PM 34.0140 -118.4270 84° East 272 313 7,200 -1,020 Descending FlightAware
03:56PM 34.0180 -118.4010 79° East 273 314 6,800 -1,260 Descending FlightAware
03:56PM 34.0210 -118.3720 83° East 272 313 6,400 -1,080 Descending FlightAware
03:56PM 34.0250 -118.3400 81° East 265 305 6,100 -1,500 Descending FlightAware
03:57PM 34.0290 -118.3080 81° East 261 300 5,400 -2,040 Descending FlightAware
03:57PM 34.0320 -118.2820 82° East 254 292 4,800 -1,500 Descending FlightAware
03:57PM 34.0350 -118.2600 81° East 243 280 4,500 -1,200 Descending FlightAware
03:58PM 34.0240 -118.2280 113° Southeast 216 249 3,900 -1,500 Descending FlightAware
03:58PM 34.0160 -118.2230 153° Southeast 210 242 3,600 -2,040 Descending FlightAware
03:58PM 34.0130 -118.2220 165° South 209 241 3,500 -1,200 Descending FlightAware
03:58PM 34.0080 -118.2210 171° South 208 239 3,400 -2,040 Descending FlightAware
03:58PM 33.9870 -118.2250 189° South 204 235 2,600 -1,620 Descending FlightAware
03:59PM 33.9610 -118.2410 207° Southwest 195 224 2,000 -720 Descending FlightAware
03:59PM 33.9510 -118.2580 235° Southwest 182 209 2,000 -180 Level FlightAware
03:59PM 33.9490 -118.2720 260° West 174 200 1,900 -660 Descending FlightAware
04:00PM 33.9470 -118.2900 262° West 166 191 1,600 -900 Descending FlightAware
04:00PM 33.9450 -118.3100 263° West 148 170 1,300 -840 Descending FlightAware
04:00PM 33.9440 -118.3160 259° West 143 165 1,200 -720 Descending FlightAware
04:01PM 33.9410 -118.3490 264° West 136 157 700 -720 Descending FlightAware
04:01PM 33.9390 -118.3620 259° West 141 162 500 -720 Descending FlightAware
04:02PM 33.9380 -118.3790 266° West 141 162 200 -360 Descending FlightAware
04:02PM 33.9360 -118.3970 262° West 141 162 200  Level FlightAware
04:10PM 33.9333 -118.4000 228° Southwest  Level FlightAware Approximate
04:11PM 33.9425 -118.4081 228° Southwest  Level Estimated